sensor_id;sensor_type;location;lat;lon;timestamp;P1;durP1;ratioP1;P2;durP2;ratioP2
72639;SDS011;60683;51.730;8.762;2023-04-15T00:00:42;7.70;;;3.50;;
72639;SDS011;60683;51.730;8.762;2023-04-15T00:03:14;7.90;;;3.30;;
72639;SDS011;60683;51.730;8.762;2023-04-15T00:05:42;12.32;;;4.18;;
72639;SDS011;60683;51.730;8.762;2023-04-15T00:08:09;8.30;;;4.03;;
72639;SDS011;60683;51.730;8.762;2023-04-15T00:10:37;8.48;;;3.22;;
72639;SDS011;60683;51.730;8.762;2023-04-15T00:13:06;8.40;;;4.13;;
72639;SDS011;60683;51.730;8.762;2023-04-15T00:15:34;7.20;;;3.53;;
72639;SDS011;60683;51.730;8.762;2023-04-15T00:18:02;8.90;;;3.70;;
72639;SDS011;60683;51.730;8.762;2023-04-15T00:20:30;8.55;;;4.05;;
72639;SDS011;60683;51.730;8.762;2023-04-15T00:22:57;7.53;;;3.95;;
72639;SDS011;60683;51.730;8.762;2023-04-15T00:25:25;7.43;;;3.58;;
72639;SDS011;60683;51.730;8.762;2023-04-15T00:27:53;8.00;;;3.92;;
72639;SDS011;60683;51.730;8.762;2023-04-15T00:30:22;6.88;;;4.13;;
72639;SDS011;60683;51.730;8.762;2023-04-15T00:32:50;6.90;;;3.70;;
72639;SDS011;60683;51.730;8.762;2023-04-15T00:35:18;9.80;;;4.57;;
72639;SDS011;60683;51.730;8.762;2023-04-15T00:37:46;6.72;;;3.67;;
72639;SDS011;60683;51.730;8.762;2023-04-15T00:40:14;8.10;;;4.47;;
72639;SDS011;60683;51.730;8.762;2023-04-15T00:42:43;7.32;;;4.07;;
72639;SDS011;60683;51.730;8.762;2023-04-15T00:45:11;8.30;;;4.05;;
72639;SDS011;60683;51.730;8.762;2023-04-15T00:47:41;6.65;;;3.80;;
72639;SDS011;60683;51.730;8.762;2023-04-15T00:50:09;7.22;;;3.63;;
72639;SDS011;60683;51.730;8.762;2023-04-15T00:52:38;7.95;;;4.00;;
72639;SDS011;60683;51.730;8.762;2023-04-15T00:55:06;6.97;;;3.50;;
72639;SDS011;60683;51.730;8.762;2023-04-15T00:57:34;7.63;;;3.75;;
72639;SDS011;60683;51.730;8.762;2023-04-15T01:00:02;7.75;;;4.05;;
72639;SDS011;60683;51.730;8.762;2023-04-15T01:02:30;9.00;;;3.63;;
72639;SDS011;60683;51.730;8.762;2023-04-15T01:04:59;7.38;;;3.42;;
72639;SDS011;60683;51.730;8.762;2023-04-15T01:07:27;7.72;;;3.95;;
72639;SDS011;60683;51.730;8.762;2023-04-15T01:09:55;7.10;;;3.90;;
72639;SDS011;60683;51.730;8.762;2023-04-15T01:12:23;7.45;;;3.72;;
72639;SDS011;60683;51.730;8.762;2023-04-15T01:14:52;7.13;;;3.50;;
72639;SDS011;60683;51.730;8.762;2023-04-15T01:17:20;9.52;;;4.05;;
72639;SDS011;60683;51.730;8.762;2023-04-15T01:19:47;6.32;;;3.75;;
72639;SDS011;60683;51.730;8.762;2023-04-15T01:22:17;9.55;;;3.88;;
72639;SDS011;60683;51.730;8.762;2023-04-15T01:24:44;7.15;;;3.97;;
72639;SDS011;60683;51.730;8.762;2023-04-15T01:27:20;7.75;;;3.40;;
72639;SDS011;60683;51.730;8.762;2023-04-15T01:29:48;8.00;;;3.83;;
72639;SDS011;60683;51.730;8.762;2023-04-15T01:32:15;6.35;;;3.38;;
72639;SDS011;60683;51.730;8.762;2023-04-15T01:34:43;8.52;;;3.45;;
72639;SDS011;60683;51.730;8.762;2023-04-15T01:37:11;8.05;;;3.50;;
72639;SDS011;60683;51.730;8.762;2023-04-15T01:39:38;8.98;;;4.20;;
72639;SDS011;60683;51.730;8.762;2023-04-15T01:42:06;8.32;;;3.80;;
72639;SDS011;60683;51.730;8.762;2023-04-15T01:44:35;8.40;;;4.47;;
72639;SDS011;60683;51.730;8.762;2023-04-15T01:47:03;8.23;;;4.47;;
72639;SDS011;60683;51.730;8.762;2023-04-15T01:49:32;9.68;;;3.83;;
72639;SDS011;60683;51.730;8.762;2023-04-15T01:51:59;7.78;;;3.40;;
72639;SDS011;60683;51.730;8.762;2023-04-15T01:54:27;7.70;;;3.67;;
72639;SDS011;60683;51.730;8.762;2023-04-15T01:56:54;7.78;;;3.63;;
72639;SDS011;60683;51.730;8.762;2023-04-15T01:59:22;7.50;;;3.60;;
72639;SDS011;60683;51.730;8.762;2023-04-15T02:01:51;8.18;;;3.60;;
72639;SDS011;60683;51.730;8.762;2023-04-15T02:04:18;7.90;;;3.67;;
72639;SDS011;60683;51.730;8.762;2023-04-15T02:06:46;7.18;;;3.40;;
72639;SDS011;60683;51.730;8.762;2023-04-15T02:09:14;8.55;;;3.72;;
72639;SDS011;60683;51.730;8.762;2023-04-15T02:11:41;6.57;;;3.38;;
72639;SDS011;60683;51.730;8.762;2023-04-15T02:14:09;9.20;;;4.43;;
72639;SDS011;60683;51.730;8.762;2023-04-15T02:16:36;9.43;;;4.40;;
72639;SDS011;60683;51.730;8.762;2023-04-15T02:19:05;9.52;;;4.30;;
72639;SDS011;60683;51.730;8.762;2023-04-15T02:21:34;6.57;;;3.75;;
72639;SDS011;60683;51.730;8.762;2023-04-15T02:24:01;7.32;;;3.55;;
72639;SDS011;60683;51.730;8.762;2023-04-15T02:26:29;9.15;;;4.45;;
72639;SDS011;60683;51.730;8.762;2023-04-15T02:28:58;8.48;;;4.20;;
72639;SDS011;60683;51.730;8.762;2023-04-15T02:31:25;7.10;;;3.85;;
72639;SDS011;60683;51.730;8.762;2023-04-15T02:33:53;8.82;;;4.28;;
72639;SDS011;60683;51.730;8.762;2023-04-15T02:36:22;6.45;;;3.45;;
72639;SDS011;60683;51.730;8.762;2023-04-15T02:38:51;8.90;;;3.42;;
72639;SDS011;60683;51.730;8.762;2023-04-15T02:41:19;9.57;;;4.13;;
72639;SDS011;60683;51.730;8.762;2023-04-15T02:43:50;7.50;;;4.13;;
72639;SDS011;60683;51.730;8.762;2023-04-15T02:46:18;9.35;;;4.20;;
72639;SDS011;60683;51.730;8.762;2023-04-15T02:48:46;7.80;;;4.00;;
72639;SDS011;60683;51.730;8.762;2023-04-15T02:51:14;7.05;;;4.20;;
72639;SDS011;60683;51.730;8.762;2023-04-15T02:53:46;7.50;;;4.18;;
72639;SDS011;60683;51.730;8.762;2023-04-15T02:56:14;7.18;;;3.90;;
72639;SDS011;60683;51.730;8.762;2023-04-15T02:58:42;8.98;;;4.47;;
72639;SDS011;60683;51.730;8.762;2023-04-15T03:01:10;8.73;;;4.50;;
72639;SDS011;60683;51.730;8.762;2023-04-15T03:03:38;9.70;;;4.57;;
72639;SDS011;60683;51.730;8.762;2023-04-15T03:06:06;8.93;;;3.55;;
72639;SDS011;60683;51.730;8.762;2023-04-15T03:08:34;9.77;;;3.80;;
72639;SDS011;60683;51.730;8.762;2023-04-15T03:11:03;7.80;;;3.95;;
72639;SDS011;60683;51.730;8.762;2023-04-15T03:13:31;9.30;;;4.13;;
72639;SDS011;60683;51.730;8.762;2023-04-15T03:15:58;8.23;;;3.83;;
72639;SDS011;60683;51.730;8.762;2023-04-15T03:18:26;7.70;;;3.97;;
72639;SDS011;60683;51.730;8.762;2023-04-15T03:20:54;8.60;;;4.50;;
72639;SDS011;60683;51.730;8.762;2023-04-15T03:23:22;9.35;;;4.18;;
72639;SDS011;60683;51.730;8.762;2023-04-15T03:25:49;6.85;;;3.80;;
72639;SDS011;60683;51.730;8.762;2023-04-15T03:28:18;10.70;;;4.78;;
72639;SDS011;60683;51.730;8.762;2023-04-15T03:30:46;8.10;;;4.63;;
72639;SDS011;60683;51.730;8.762;2023-04-15T03:33:13;10.00;;;4.57;;
72639;SDS011;60683;51.730;8.762;2023-04-15T03:35:41;12.48;;;4.90;;
72639;SDS011;60683;51.730;8.762;2023-04-15T03:38:08;7.78;;;4.28;;
72639;SDS011;60683;51.730;8.762;2023-04-15T03:40:36;9.50;;;5.00;;
72639;SDS011;60683;51.730;8.762;2023-04-15T03:43:05;8.90;;;4.63;;
72639;SDS011;60683;51.730;8.762;2023-04-15T03:45:34;8.98;;;4.72;;
72639;SDS011;60683;51.730;8.762;2023-04-15T03:48:02;15.30;;;6.45;;
72639;SDS011;60683;51.730;8.762;2023-04-15T03:50:30;20.70;;;9.82;;
72639;SDS011;60683;51.730;8.762;2023-04-15T03:52:57;31.90;;;15.88;;
72639;SDS011;60683;51.730;8.762;2023-04-15T03:55:25;49.53;;;20.63;;
72639;SDS011;60683;51.730;8.762;2023-04-15T03:57:53;62.20;;;24.80;;
72639;SDS011;60683;51.730;8.762;2023-04-15T04:00:20;114.07;;;46.95;;
72639;SDS011;60683;51.730;8.762;2023-04-15T04:02:49;120.10;;;52.50;;
72639;SDS011;60683;51.730;8.762;2023-04-15T04:05:17;108.57;;;44.83;;
72639;SDS011;60683;51.730;8.762;2023-04-15T04:07:45;115.20;;;49.30;;
72639;SDS011;60683;51.730;8.762;2023-04-15T04:10:12;125.43;;;60.47;;
72639;SDS011;60683;51.730;8.762;2023-04-15T04:12:40;128.85;;;56.50;;
72639;SDS011;60683;51.730;8.762;2023-04-15T04:15:07;135.63;;;59.38;;
72639;SDS011;60683;51.730;8.762;2023-04-15T04:17:35;120.65;;;56.40;;
72639;SDS011;60683;51.730;8.762;2023-04-15T04:20:05;125.20;;;51.17;;
72639;SDS011;60683;51.730;8.762;2023-04-15T04:22:36;113.90;;;51.33;;
72639;SDS011;60683;51.730;8.762;2023-04-15T04:25:04;96.03;;;43.72;;
72639;SDS011;60683;51.730;8.762;2023-04-15T04:27:33;93.72;;;42.58;;
72639;SDS011;60683;51.730;8.762;2023-04-15T04:30:00;90.93;;;39.53;;
72639;SDS011;60683;51.730;8.762;2023-04-15T04:32:28;94.70;;;40.28;;
72639;SDS011;60683;51.730;8.762;2023-04-15T04:34:56;84.55;;;38.45;;
72639;SDS011;60683;51.730;8.762;2023-04-15T04:37:25;87.13;;;39.60;;
72639;SDS011;60683;51.730;8.762;2023-04-15T04:39:52;84.40;;;38.53;;
72639;SDS011;60683;51.730;8.762;2023-04-15T04:42:20;89.63;;;39.72;;
72639;SDS011;60683;51.730;8.762;2023-04-15T04:44:48;83.13;;;39.53;;
72639;SDS011;60683;51.730;8.762;2023-04-15T04:47:15;80.78;;;36.90;;
72639;SDS011;60683;51.730;8.762;2023-04-15T04:49:43;80.97;;;36.72;;
72639;SDS011;60683;51.730;8.762;2023-04-15T04:52:10;76.90;;;35.72;;
72639;SDS011;60683;51.730;8.762;2023-04-15T04:54:39;73.55;;;34.50;;
72639;SDS011;60683;51.730;8.762;2023-04-15T04:57:07;70.22;;;33.75;;
72639;SDS011;60683;51.730;8.762;2023-04-15T04:59:34;62.88;;;30.20;;
72639;SDS011;60683;51.730;8.762;2023-04-15T05:02:02;67.95;;;31.15;;
72639;SDS011;60683;51.730;8.762;2023-04-15T05:04:29;63.50;;;28.85;;
72639;SDS011;60683;51.730;8.762;2023-04-15T05:06:57;58.60;;;28.13;;
72639;SDS011;60683;51.730;8.762;2023-04-15T05:09:25;49.50;;;24.48;;
72639;SDS011;60683;51.730;8.762;2023-04-15T05:11:54;46.38;;;21.50;;
72639;SDS011;60683;51.730;8.762;2023-04-15T05:14:22;38.42;;;19.83;;
72639;SDS011;60683;51.730;8.762;2023-04-15T05:16:50;44.65;;;20.30;;
72639;SDS011;60683;51.730;8.762;2023-04-15T05:19:17;40.42;;;19.48;;
72639;SDS011;60683;51.730;8.762;2023-04-15T05:21:45;38.00;;;16.85;;
72639;SDS011;60683;51.730;8.762;2023-04-15T05:24:12;31.95;;;15.57;;
72639;SDS011;60683;51.730;8.762;2023-04-15T05:26:40;32.35;;;14.93;;
72639;SDS011;60683;51.730;8.762;2023-04-15T05:29:09;23.73;;;11.65;;
72639;SDS011;60683;51.730;8.762;2023-04-15T05:31:37;21.90;;;10.85;;
72639;SDS011;60683;51.730;8.762;2023-04-15T05:34:04;17.90;;;9.48;;
72639;SDS011;60683;51.730;8.762;2023-04-15T05:36:32;18.83;;;9.00;;
72639;SDS011;60683;51.730;8.762;2023-04-15T05:38:59;18.48;;;7.72;;
72639;SDS011;60683;51.730;8.762;2023-04-15T05:41:27;19.58;;;8.68;;
72639;SDS011;60683;51.730;8.762;2023-04-15T05:43:54;14.88;;;7.38;;
72639;SDS011;60683;51.730;8.762;2023-04-15T05:46:24;14.55;;;7.57;;
72639;SDS011;60683;51.730;8.762;2023-04-15T05:48:52;14.32;;;6.78;;
72639;SDS011;60683;51.730;8.762;2023-04-15T05:51:19;14.25;;;7.32;;
72639;SDS011;60683;51.730;8.762;2023-04-15T05:53:47;12.07;;;6.45;;
72639;SDS011;60683;51.730;8.762;2023-04-15T05:56:15;14.18;;;7.05;;
72639;SDS011;60683;51.730;8.762;2023-04-15T05:58:42;13.70;;;7.47;;
72639;SDS011;60683;51.730;8.762;2023-04-15T06:01:10;15.20;;;6.50;;
72639;SDS011;60683;51.730;8.762;2023-04-15T06:03:39;11.90;;;6.00;;
72639;SDS011;60683;51.730;8.762;2023-04-15T06:06:06;13.10;;;6.38;;
72639;SDS011;60683;51.730;8.762;2023-04-15T06:08:34;11.70;;;6.20;;
72639;SDS011;60683;51.730;8.762;2023-04-15T06:11:01;11.13;;;5.28;;
72639;SDS011;60683;51.730;8.762;2023-04-15T06:13:29;11.65;;;5.80;;
72639;SDS011;60683;51.730;8.762;2023-04-15T06:15:56;11.65;;;6.15;;
72639;SDS011;60683;51.730;8.762;2023-04-15T06:18:24;10.82;;;6.32;;
72639;SDS011;60683;51.730;8.762;2023-04-15T06:20:53;16.80;;;6.43;;
72639;SDS011;60683;51.730;8.762;2023-04-15T06:23:21;11.82;;;6.53;;
72639;SDS011;60683;51.730;8.762;2023-04-15T06:25:48;15.45;;;6.95;;
72639;SDS011;60683;51.730;8.762;2023-04-15T06:28:16;13.40;;;7.57;;
72639;SDS011;60683;51.730;8.762;2023-04-15T06:30:44;11.93;;;7.80;;
72639;SDS011;60683;51.730;8.762;2023-04-15T06:33:11;14.23;;;6.97;;
72639;SDS011;60683;51.730;8.762;2023-04-15T06:35:39;14.57;;;6.85;;
72639;SDS011;60683;51.730;8.762;2023-04-15T06:38:07;12.65;;;5.97;;
72639;SDS011;60683;51.730;8.762;2023-04-15T06:40:35;12.98;;;7.00;;
72639;SDS011;60683;51.730;8.762;2023-04-15T06:43:02;12.68;;;5.88;;
72639;SDS011;60683;51.730;8.762;2023-04-15T06:45:31;16.00;;;7.20;;
72639;SDS011;60683;51.730;8.762;2023-04-15T06:47:58;14.55;;;6.93;;
72639;SDS011;60683;51.730;8.762;2023-04-15T06:50:26;12.25;;;6.63;;
72639;SDS011;60683;51.730;8.762;2023-04-15T06:52:53;15.13;;;6.55;;
72639;SDS011;60683;51.730;8.762;2023-04-15T06:55:23;13.45;;;6.47;;
72639;SDS011;60683;51.730;8.762;2023-04-15T06:57:50;17.13;;;6.60;;
72639;SDS011;60683;51.730;8.762;2023-04-15T07:00:18;15.30;;;7.30;;
72639;SDS011;60683;51.730;8.762;2023-04-15T07:02:46;13.60;;;6.68;;
72639;SDS011;60683;51.730;8.762;2023-04-15T07:05:13;15.00;;;7.53;;
72639;SDS011;60683;51.730;8.762;2023-04-15T07:07:41;12.73;;;7.00;;
72639;SDS011;60683;51.730;8.762;2023-04-15T07:10:09;16.05;;;7.43;;
72639;SDS011;60683;51.730;8.762;2023-04-15T07:12:38;12.93;;;7.30;;
72639;SDS011;60683;51.730;8.762;2023-04-15T07:15:06;12.05;;;6.40;;
72639;SDS011;60683;51.730;8.762;2023-04-15T07:17:47;13.07;;;6.75;;
72639;SDS011;60683;51.730;8.762;2023-04-15T07:20:15;15.18;;;7.65;;
72639;SDS011;60683;51.730;8.762;2023-04-15T07:22:42;15.02;;;7.68;;
72639;SDS011;60683;51.730;8.762;2023-04-15T07:25:14;13.63;;;7.22;;
72639;SDS011;60683;51.730;8.762;2023-04-15T07:27:43;13.32;;;7.05;;
72639;SDS011;60683;51.730;8.762;2023-04-15T07:30:11;14.95;;;7.40;;
72639;SDS011;60683;51.730;8.762;2023-04-15T07:32:42;12.55;;;7.38;;
72639;SDS011;60683;51.730;8.762;2023-04-15T07:35:09;12.45;;;6.70;;
72639;SDS011;60683;51.730;8.762;2023-04-15T07:37:37;18.30;;;8.30;;
72639;SDS011;60683;51.730;8.762;2023-04-15T07:40:05;17.17;;;7.88;;
72639;SDS011;60683;51.730;8.762;2023-04-15T07:42:33;17.25;;;7.85;;
72639;SDS011;60683;51.730;8.762;2023-04-15T07:45:03;16.33;;;8.85;;
72639;SDS011;60683;51.730;8.762;2023-04-15T07:47:32;14.73;;;7.25;;
72639;SDS011;60683;51.730;8.762;2023-04-15T07:50:00;14.23;;;6.45;;
72639;SDS011;60683;51.730;8.762;2023-04-15T07:52:28;12.95;;;7.00;;
72639;SDS011;60683;51.730;8.762;2023-04-15T07:54:55;13.73;;;6.78;;
72639;SDS011;60683;51.730;8.762;2023-04-15T07:57:23;15.30;;;6.03;;
72639;SDS011;60683;51.730;8.762;2023-04-15T07:59:50;12.60;;;6.75;;
72639;SDS011;60683;51.730;8.762;2023-04-15T08:02:19;16.42;;;7.07;;
72639;SDS011;60683;51.730;8.762;2023-04-15T08:04:47;16.98;;;7.10;;
72639;SDS011;60683;51.730;8.762;2023-04-15T08:07:15;13.18;;;6.22;;
72639;SDS011;60683;51.730;8.762;2023-04-15T08:09:43;14.52;;;7.13;;
72639;SDS011;60683;51.730;8.762;2023-04-15T08:12:11;15.57;;;7.78;;
72639;SDS011;60683;51.730;8.762;2023-04-15T08:14:39;14.73;;;6.20;;
72639;SDS011;60683;51.730;8.762;2023-04-15T08:17:07;14.43;;;7.22;;
72639;SDS011;60683;51.730;8.762;2023-04-15T08:19:36;17.13;;;8.45;;
72639;SDS011;60683;51.730;8.762;2023-04-15T08:22:04;13.55;;;6.47;;
72639;SDS011;60683;51.730;8.762;2023-04-15T08:24:31;15.43;;;7.63;;
72639;SDS011;60683;51.730;8.762;2023-04-15T08:26:59;17.45;;;7.82;;
72639;SDS011;60683;51.730;8.762;2023-04-15T08:31:58;11.00;;;5.47;;
72639;SDS011;60683;51.730;8.762;2023-04-15T08:34:25;18.25;;;8.35;;
72639;SDS011;60683;51.730;8.762;2023-04-15T08:36:54;18.40;;;8.95;;
72639;SDS011;60683;51.730;8.762;2023-04-15T08:39:22;18.40;;;9.68;;
72639;SDS011;60683;51.730;8.762;2023-04-15T08:41:51;18.27;;;9.15;;
72639;SDS011;60683;51.730;8.762;2023-04-15T08:44:21;17.67;;;8.52;;
72639;SDS011;60683;51.730;8.762;2023-04-15T08:46:50;17.42;;;7.70;;
72639;SDS011;60683;51.730;8.762;2023-04-15T08:49:19;13.68;;;4.82;;
72639;SDS011;60683;51.730;8.762;2023-04-15T08:51:47;15.60;;;7.15;;
72639;SDS011;60683;51.730;8.762;2023-04-15T08:54:17;19.65;;;9.00;;
72639;SDS011;60683;51.730;8.762;2023-04-15T08:56:44;13.50;;;5.80;;
72639;SDS011;60683;51.730;8.762;2023-04-15T08:59:12;18.98;;;7.72;;
72639;SDS011;60683;51.730;8.762;2023-04-15T09:01:41;16.58;;;7.00;;
72639;SDS011;60683;51.730;8.762;2023-04-15T09:04:08;17.27;;;7.43;;
72639;SDS011;60683;51.730;8.762;2023-04-15T09:06:37;11.00;;;5.57;;
72639;SDS011;60683;51.730;8.762;2023-04-15T09:09:06;14.15;;;6.18;;
72639;SDS011;60683;51.730;8.762;2023-04-15T09:11:35;16.45;;;6.03;;
72639;SDS011;60683;51.730;8.762;2023-04-15T09:14:02;13.30;;;6.55;;
72639;SDS011;60683;51.730;8.762;2023-04-15T09:16:30;17.58;;;6.38;;
72639;SDS011;60683;51.730;8.762;2023-04-15T09:18:57;16.33;;;7.43;;
72639;SDS011;60683;51.730;8.762;2023-04-15T09:21:25;10.40;;;5.35;;
72639;SDS011;60683;51.730;8.762;2023-04-15T09:23:53;11.68;;;5.45;;
72639;SDS011;60683;51.730;8.762;2023-04-15T09:26:29;15.30;;;6.53;;
72639;SDS011;60683;51.730;8.762;2023-04-15T09:29:02;15.15;;;6.70;;
72639;SDS011;60683;51.730;8.762;2023-04-15T09:31:31;11.75;;;5.30;;
72639;SDS011;60683;51.730;8.762;2023-04-15T09:33:59;14.10;;;5.82;;
72639;SDS011;60683;51.730;8.762;2023-04-15T09:36:26;12.15;;;5.82;;
72639;SDS011;60683;51.730;8.762;2023-04-15T09:38:55;10.20;;;4.63;;
72639;SDS011;60683;51.730;8.762;2023-04-15T09:41:23;10.90;;;4.78;;
72639;SDS011;60683;51.730;8.762;2023-04-15T09:43:51;15.50;;;6.93;;
72639;SDS011;60683;51.730;8.762;2023-04-15T09:46:20;10.73;;;4.50;;
72639;SDS011;60683;51.730;8.762;2023-04-15T09:49:07;12.20;;;5.07;;
72639;SDS011;60683;51.730;8.762;2023-04-15T09:51:35;12.80;;;4.88;;
72639;SDS011;60683;51.730;8.762;2023-04-15T09:54:02;10.38;;;4.68;;
72639;SDS011;60683;51.730;8.762;2023-04-15T09:56:31;10.68;;;4.10;;
72639;SDS011;60683;51.730;8.762;2023-04-15T09:59:01;10.55;;;4.55;;
72639;SDS011;60683;51.730;8.762;2023-04-15T10:01:30;8.43;;;4.00;;
72639;SDS011;60683;51.730;8.762;2023-04-15T10:03:57;12.55;;;4.18;;
72639;SDS011;60683;51.730;8.762;2023-04-15T10:06:25;11.00;;;5.05;;
72639;SDS011;60683;51.730;8.762;2023-04-15T10:08:53;10.82;;;4.70;;
72639;SDS011;60683;51.730;8.762;2023-04-15T10:11:20;10.07;;;4.30;;
72639;SDS011;60683;51.730;8.762;2023-04-15T10:13:49;8.10;;;3.35;;
72639;SDS011;60683;51.730;8.762;2023-04-15T10:16:18;10.90;;;5.00;;
72639;SDS011;60683;51.730;8.762;2023-04-15T10:18:50;10.60;;;4.32;;
72639;SDS011;60683;51.730;8.762;2023-04-15T10:21:21;6.03;;;3.25;;
72639;SDS011;60683;51.730;8.762;2023-04-15T10:23:49;10.27;;;4.43;;
72639;SDS011;60683;51.730;8.762;2023-04-15T10:26:16;13.13;;;5.88;;
72639;SDS011;60683;51.730;8.762;2023-04-15T10:28:44;6.47;;;3.45;;
72639;SDS011;60683;51.730;8.762;2023-04-15T10:31:14;10.45;;;5.07;;
72639;SDS011;60683;51.730;8.762;2023-04-15T10:33:42;10.85;;;5.55;;
72639;SDS011;60683;51.730;8.762;2023-04-15T10:36:12;9.75;;;6.18;;
72639;SDS011;60683;51.730;8.762;2023-04-15T10:38:40;12.40;;;4.90;;
72639;SDS011;60683;51.730;8.762;2023-04-15T10:41:15;12.30;;;5.53;;
72639;SDS011;60683;51.730;8.762;2023-04-15T10:43:45;22.85;;;10.55;;
72639;SDS011;60683;51.730;8.762;2023-04-15T10:46:17;26.38;;;11.45;;
72639;SDS011;60683;51.730;8.762;2023-04-15T10:48:46;18.05;;;8.30;;
72639;SDS011;60683;51.730;8.762;2023-04-15T10:51:16;9.85;;;4.57;;
72639;SDS011;60683;51.730;8.762;2023-04-15T10:53:55;9.02;;;4.70;;
72639;SDS011;60683;51.730;8.762;2023-04-15T10:56:22;10.02;;;4.47;;
72639;SDS011;60683;51.730;8.762;2023-04-15T10:58:50;9.82;;;4.68;;
72639;SDS011;60683;51.730;8.762;2023-04-15T11:01:18;8.40;;;4.00;;
72639;SDS011;60683;51.730;8.762;2023-04-15T11:03:48;10.23;;;4.78;;
72639;SDS011;60683;51.730;8.762;2023-04-15T11:06:17;9.40;;;4.70;;
72639;SDS011;60683;51.730;8.762;2023-04-15T11:08:52;9.77;;;4.78;;
72639;SDS011;60683;51.730;8.762;2023-04-15T11:11:20;9.07;;;4.10;;
72639;SDS011;60683;51.730;8.762;2023-04-15T11:13:49;9.77;;;4.03;;
72639;SDS011;60683;51.730;8.762;2023-04-15T11:16:17;11.95;;;4.43;;
72639;SDS011;60683;51.730;8.762;2023-04-15T11:18:52;10.75;;;4.53;;
72639;SDS011;60683;51.730;8.762;2023-04-15T11:21:21;10.93;;;5.18;;
72639;SDS011;60683;51.730;8.762;2023-04-15T11:23:51;9.40;;;4.20;;
72639;SDS011;60683;51.730;8.762;2023-04-15T11:26:18;9.60;;;4.30;;
72639;SDS011;60683;51.730;8.762;2023-04-15T11:28:46;11.02;;;4.68;;
72639;SDS011;60683;51.730;8.762;2023-04-15T11:31:14;10.07;;;4.28;;
72639;SDS011;60683;51.730;8.762;2023-04-15T11:33:52;8.52;;;4.47;;
72639;SDS011;60683;51.730;8.762;2023-04-15T11:36:24;10.23;;;4.50;;
72639;SDS011;60683;51.730;8.762;2023-04-15T11:38:56;12.02;;;5.38;;
72639;SDS011;60683;51.730;8.762;2023-04-15T11:41:23;10.57;;;6.13;;
72639;SDS011;60683;51.730;8.762;2023-04-15T11:43:51;11.70;;;5.35;;
72639;SDS011;60683;51.730;8.762;2023-04-15T11:46:19;11.45;;;5.30;;
72639;SDS011;60683;51.730;8.762;2023-04-15T11:48:47;11.80;;;5.80;;
72639;SDS011;60683;51.730;8.762;2023-04-15T11:51:16;10.75;;;5.55;;
72639;SDS011;60683;51.730;8.762;2023-04-15T11:53:47;10.68;;;5.75;;
72639;SDS011;60683;51.730;8.762;2023-04-15T11:56:16;11.13;;;5.60;;
72639;SDS011;60683;51.730;8.762;2023-04-15T11:58:44;10.68;;;4.63;;
72639;SDS011;60683;51.730;8.762;2023-04-15T12:01:12;8.32;;;3.83;;
72639;SDS011;60683;51.730;8.762;2023-04-15T12:03:40;8.40;;;4.50;;
72639;SDS011;60683;51.730;8.762;2023-04-15T12:06:13;8.48;;;3.78;;
72639;SDS011;60683;51.730;8.762;2023-04-15T12:08:50;7.28;;;3.35;;
72639;SDS011;60683;51.730;8.762;2023-04-15T12:11:28;9.40;;;3.75;;
72639;SDS011;60683;51.730;8.762;2023-04-15T12:13:58;7.70;;;3.88;;
72639;SDS011;60683;51.730;8.762;2023-04-15T12:16:30;7.18;;;3.85;;
72639;SDS011;60683;51.730;8.762;2023-04-15T12:18:58;7.43;;;3.85;;
72639;SDS011;60683;51.730;8.762;2023-04-15T12:21:27;7.97;;;3.95;;
72639;SDS011;60683;51.730;8.762;2023-04-15T12:24:02;9.77;;;4.00;;
72639;SDS011;60683;51.730;8.762;2023-04-15T12:26:30;7.38;;;3.63;;
72639;SDS011;60683;51.730;8.762;2023-04-15T12:29:00;8.85;;;3.53;;
72639;SDS011;60683;51.730;8.762;2023-04-15T12:31:28;6.40;;;3.03;;
72639;SDS011;60683;51.730;8.762;2023-04-15T12:33:55;8.57;;;4.40;;
72639;SDS011;60683;51.730;8.762;2023-04-15T12:36:23;7.78;;;3.95;;
72639;SDS011;60683;51.730;8.762;2023-04-15T12:38:51;7.30;;;3.40;;
72639;SDS011;60683;51.730;8.762;2023-04-15T12:41:20;8.43;;;3.78;;
72639;SDS011;60683;51.730;8.762;2023-04-15T12:43:49;8.48;;;4.68;;
72639;SDS011;60683;51.730;8.762;2023-04-15T12:46:16;8.48;;;4.20;;
72639;SDS011;60683;51.730;8.762;2023-04-15T12:48:46;8.90;;;3.92;;
72639;SDS011;60683;51.730;8.762;2023-04-15T12:51:13;12.57;;;4.57;;
72639;SDS011;60683;51.730;8.762;2023-04-15T12:53:41;9.90;;;4.90;;
72639;SDS011;60683;51.730;8.762;2023-04-15T12:56:08;9.52;;;4.57;;
72639;SDS011;60683;51.730;8.762;2023-04-15T12:58:38;10.15;;;4.85;;
72639;SDS011;60683;51.730;8.762;2023-04-15T13:01:05;9.00;;;4.25;;
72639;SDS011;60683;51.730;8.762;2023-04-15T13:03:33;7.82;;;4.38;;
72639;SDS011;60683;51.730;8.762;2023-04-15T13:06:00;6.00;;;3.30;;
72639;SDS011;60683;51.730;8.762;2023-04-15T13:08:29;6.50;;;3.30;;
72639;SDS011;60683;51.730;8.762;2023-04-15T13:10:57;6.97;;;3.25;;
72639;SDS011;60683;51.730;8.762;2023-04-15T13:13:25;9.40;;;4.15;;
72639;SDS011;60683;51.730;8.762;2023-04-15T13:15:54;6.88;;;3.08;;
72639;SDS011;60683;51.730;8.762;2023-04-15T13:18:22;7.72;;;3.85;;
72639;SDS011;60683;51.730;8.762;2023-04-15T13:20:49;7.75;;;3.53;;
72639;SDS011;60683;51.730;8.762;2023-04-15T13:23:17;6.85;;;3.85;;
72639;SDS011;60683;51.730;8.762;2023-04-15T13:25:44;6.43;;;3.45;;
72639;SDS011;60683;51.730;8.762;2023-04-15T13:28:12;7.38;;;3.63;;
72639;SDS011;60683;51.730;8.762;2023-04-15T13:30:39;6.22;;;3.50;;
72639;SDS011;60683;51.730;8.762;2023-04-15T13:33:13;6.65;;;3.92;;
72639;SDS011;60683;51.730;8.762;2023-04-15T13:35:42;5.95;;;2.83;;
72639;SDS011;60683;51.730;8.762;2023-04-15T13:38:11;8.27;;;4.20;;
72639;SDS011;60683;51.730;8.762;2023-04-15T13:40:38;8.13;;;4.07;;
72639;SDS011;60683;51.730;8.762;2023-04-15T13:43:06;6.35;;;3.55;;
72639;SDS011;60683;51.730;8.762;2023-04-15T13:45:34;6.22;;;3.25;;
72639;SDS011;60683;51.730;8.762;2023-04-15T13:48:02;7.03;;;3.65;;
72639;SDS011;60683;51.730;8.762;2023-04-15T13:50:31;8.77;;;4.03;;
72639;SDS011;60683;51.730;8.762;2023-04-15T13:52:59;6.72;;;3.88;;
72639;SDS011;60683;51.730;8.762;2023-04-15T13:55:26;9.10;;;4.65;;
72639;SDS011;60683;51.730;8.762;2023-04-15T13:57:54;6.35;;;3.42;;
72639;SDS011;60683;51.730;8.762;2023-04-15T14:00:22;7.55;;;3.17;;
72639;SDS011;60683;51.730;8.762;2023-04-15T14:02:50;7.03;;;3.55;;
72639;SDS011;60683;51.730;8.762;2023-04-15T14:05:18;8.75;;;4.25;;
72639;SDS011;60683;51.730;8.762;2023-04-15T14:07:47;8.02;;;4.35;;
72639;SDS011;60683;51.730;8.762;2023-04-15T14:10:15;8.32;;;4.05;;
72639;SDS011;60683;51.730;8.762;2023-04-15T14:12:42;8.00;;;4.35;;
72639;SDS011;60683;51.730;8.762;2023-04-15T14:15:10;7.55;;;3.67;;
72639;SDS011;60683;51.730;8.762;2023-04-15T14:17:38;10.30;;;5.20;;
72639;SDS011;60683;51.730;8.762;2023-04-15T14:20:07;9.98;;;4.97;;
72639;SDS011;60683;51.730;8.762;2023-04-15T14:22:35;7.45;;;3.85;;
72639;SDS011;60683;51.730;8.762;2023-04-15T14:25:05;9.68;;;5.32;;
72639;SDS011;60683;51.730;8.762;2023-04-15T14:27:33;8.05;;;4.20;;
72639;SDS011;60683;51.730;8.762;2023-04-15T14:30:00;7.88;;;3.75;;
72639;SDS011;60683;51.730;8.762;2023-04-15T14:32:28;10.68;;;4.60;;
72639;SDS011;60683;51.730;8.762;2023-04-15T14:34:55;6.38;;;3.55;;
72639;SDS011;60683;51.730;8.762;2023-04-15T14:37:23;7.22;;;3.70;;
72639;SDS011;60683;51.730;8.762;2023-04-15T14:39:51;11.73;;;4.55;;
72639;SDS011;60683;51.730;8.762;2023-04-15T14:42:20;7.00;;;4.40;;
72639;SDS011;60683;51.730;8.762;2023-04-15T14:44:48;10.77;;;4.68;;
72639;SDS011;60683;51.730;8.762;2023-04-15T14:47:15;11.07;;;5.05;;